Time;durP1;ratioP1;P1;durP2;ratioP2;P2;SDS_P1;SDS_P2;PMS_P1;PMS_P2;Temp;Humidity;BMP_temperature;BMP_pressure;BME280_temperature;BME280_humidity;BME280_pressure;Samples;Min_cycle;Max_cycle;Signal;HPM_P1;HPM_P2
2022/10/24 00:01:13;;;;;;;8.43;1.80;;;;;;;;;;5019983;28;20188;-86
2022/10/24 00:04:17;;;;;;;10.13;1.83;;;;;;;;;;5030846;28;20200;-86
2022/10/24 00:07:21;;;;;;;7.23;1.90;;;;;;;;;;5041895;28;20643;-86
2022/10/24 00:10:26;;;;;;;11.47;2.50;;;;;;;;;;5019735;28;20188;-86
2022/10/24 00:13:30;;;;;;;10.97;2.30;;;;;;;;;;5019765;28;20519;-86
2022/10/24 00:16:34;;;;;;;13.07;2.40;;;;;;;;;;5030728;28;20188;-86
2022/10/24 00:19:38;;;;;;;10.93;1.87;;;;;;;;;;5019188;28;20686;-86
2022/10/24 00:22:42;;;;;;;11.17;2.13;;;;;;;;;;5030783;28;20215;-86
2022/10/24 00:25:47;;;;;;;4.30;1.87;;;;;;;;;;5019181;28;20184;-86
2022/10/24 00:28:51;;;;;;;7.40;1.90;;;;;;;;;;5029585;28;20587;-86
2022/10/24 00:31:55;;;;;;;7.27;2.17;;;;;;;;;;5019107;28;20199;-86
2022/10/24 00:34:59;;;;;;;7.13;2.13;;;;;;;;;;5030004;28;20188;-86
2022/10/24 00:38:03;;;;;;;9.23;2.03;;;;;;;;;;5018691;28;20199;-86
2022/10/24 00:41:33;;;;;;;3.93;1.70;;;;;;;;;;5036260;28;20191;-85
2022/10/24 00:44:39;;;;;;;6.37;1.87;;;;;;;;;;5049901;28;20172;-86
2022/10/24 00:47:44;;;;;;;6.63;1.57;;;;;;;;;;5050085;28;20203;-86
2022/10/24 00:50:52;;;;;;;10.17;1.50;;;;;;;;;;5038420;28;20172;-85
2022/10/24 00:54:03;;;;;;;5.40;1.70;;;;;;;;;;5038710;28;20179;-86
2022/10/24 00:57:15;;;;;;;7.73;1.57;;;;;;;;;;5050013;28;20188;-87
2022/10/24 01:00:28;;;;;;;6.93;1.63;;;;;;;;;;5038486;28;20183;-87
2022/10/24 01:03:31;;;;;;;5.40;1.30;;;;;;;;;;5061141;28;20211;-88
2022/10/24 01:06:57;;;;;;;3.47;1.23;;;;;;;;;;5049864;28;20519;-88
2022/10/24 01:10:31;;;;;;;5.00;1.33;;;;;;;;;;5049583;28;20216;-87
2022/10/24 01:14:04;;;;;;;3.70;1.50;;;;;;;;;;5038378;28;20176;-88
2022/10/24 01:17:16;;;;;;;10.33;1.50;;;;;;;;;;5038343;28;20175;-88
2022/10/24 01:20:32;;;;;;;7.17;1.37;;;;;;;;;;5029372;28;20195;-87
2022/10/24 01:23:43;;;;;;;5.63;1.40;;;;;;;;;;5018500;28;20211;-88
2022/10/24 01:27:07;;;;;;;4.07;1.50;;;;;;;;;;5018352;28;20188;-88
2022/10/24 01:30:12;;;;;;;5.20;1.70;;;;;;;;;;5018001;28;20220;-87
2022/10/24 01:33:28;;;;;;;3.93;1.50;;;;;;;;;;5018406;28;20177;-87
2022/10/24 01:36:38;;;;;;;5.33;1.47;;;;;;;;;;5029623;28;20185;-87
2022/10/24 01:39:51;;;;;;;4.30;1.77;;;;;;;;;;5029153;28;20228;-87
2022/10/24 01:42:59;;;;;;;5.87;1.50;;;;;;;;;;5029792;28;20212;-87
2022/10/24 01:46:07;;;;;;;6.20;1.63;;;;;;;;;;5029475;28;20623;-87
2022/10/24 01:49:17;;;;;;;5.53;1.33;;;;;;;;;;5028529;28;20220;-87
2022/10/24 01:52:25;;;;;;;8.97;2.13;;;;;;;;;;5018306;28;20185;-86
2022/10/24 01:55:31;;;;;;;9.00;1.97;;;;;;;;;;5029785;28;20192;-86
2022/10/24 01:58:35;;;;;;;6.93;2.20;;;;;;;;;;5029601;28;20220;-86
2022/10/24 02:01:39;;;;;;;7.17;1.80;;;;;;;;;;5030337;28;20176;-86
2022/10/24 02:04:50;;;;;;;5.83;1.70;;;;;;;;;;5033524;28;20555;-86
2022/10/24 02:08:00;;;;;;;15.40;1.77;;;;;;;;;;5045072;28;20188;-86
2022/10/24 02:11:06;;;;;;;7.17;1.60;;;;;;;;;;5033264;28;20177;-86
2022/10/24 02:14:15;;;;;;;7.50;1.90;;;;;;;;;;5033269;28;20180;-86
2022/10/24 02:17:19;;;;;;;8.03;1.83;;;;;;;;;;5032906;28;20200;-86
2022/10/24 02:20:37;;;;;;;5.40;2.00;;;;;;;;;;5032688;28;20199;-86
2022/10/24 02:23:49;;;;;;;10.70;2.20;;;;;;;;;;5032993;28;20208;-86
2022/10/24 02:27:02;;;;;;;8.70;1.60;;;;;;;;;;5032979;28;20200;-86
2022/10/24 02:30:11;;;;;;;5.87;1.97;;;;;;;;;;5045359;28;20227;-85
2022/10/24 02:33:16;;;;;;;4.37;1.60;;;;;;;;;;5023574;28;20173;-86
2022/10/24 02:36:26;;;;;;;4.67;1.40;;;;;;;;;;5034844;28;20180;-85
2022/10/24 02:39:31;;;;;;;5.70;1.60;;;;;;;;;;5022929;28;20576;-85
2022/10/24 02:42:37;;;;;;;6.53;1.33;;;;;;;;;;5034581;28;20176;-85
2022/10/24 02:45:41;;;;;;;5.23;1.80;;;;;;;;;;5034759;28;20181;-85
2022/10/24 02:48:52;;;;;;;7.37;2.03;;;;;;;;;;5035281;28;20220;-85
2022/10/24 02:51:56;;;;;;;6.70;1.83;;;;;;;;;;5033995;28;20181;-85
2022/10/24 02:55:00;;;;;;;10.27;2.03;;;;;;;;;;5058178;28;20176;-85
2022/10/24 02:58:04;;;;;;;13.00;2.00;;;;;;;;;;5034607;28;20531;-85
2022/10/24 03:01:09;;;;;;;8.77;2.20;;;;;;;;;;5034423;28;20176;-85
2022/10/24 03:04:13;;;;;;;4.20;1.70;;;;;;;;;;5057208;28;20208;-85
2022/10/24 03:07:17;;;;;;;10.47;1.90;;;;;;;;;;5033772;28;20176;-85
2022/10/24 03:10:21;;;;;;;7.30;1.83;;;;;;;;;;5045682;28;20188;-86
2022/10/24 03:13:25;;;;;;;5.80;2.00;;;;;;;;;;5032770;28;20180;-85
2022/10/24 03:16:29;;;;;;;6.43;2.13;;;;;;;;;;5034108;28;20176;-85
2022/10/24 03:19:33;;;;;;;7.23;1.93;;;;;;;;;;5022958;28;20212;-85
2022/10/24 03:22:37;;;;;;;10.00;1.90;;;;;;;;;;5022151;28;20204;-85
2022/10/24 03:25:42;;;;;;;6.73;1.53;;;;;;;;;;5022022;28;20548;-85
2022/10/24 03:28:46;;;;;;;9.27;1.83;;;;;;;;;;5021562;28;20220;-85
2022/10/24 03:31:50;;;;;;;3.60;1.70;;;;;;;;;;5044181;28;20658;-85
2022/10/24 03:34:54;;;;;;;6.40;2.00;;;;;;;;;;5032664;28;20196;-85
2022/10/24 03:37:58;;;;;;;5.47;1.77;;;;;;;;;;5022010;28;20511;-86
2022/10/24 03:41:04;;;;;;;7.90;1.80;;;;;;;;;;5033546;28;20651;-85
2022/10/24 03:44:08;;;;;;;8.70;1.90;;;;;;;;;;5032728;28;20224;-85
2022/10/24 03:47:12;;;;;;;2.93;1.40;;;;;;;;;;5033074;28;20223;-85
2022/10/24 03:50:16;;;;;;;5.37;1.67;;;;;;;;;;5033022;28;20228;-85
2022/10/24 03:53:21;;;;;;;6.47;1.73;;;;;;;;;;5021203;28;20673;-85
2022/10/24 03:56:25;;;;;;;5.27;1.93;;;;;;;;;;5021888;28;20179;-85
2022/10/24 03:59:29;;;;;;;7.40;1.70;;;;;;;;;;5021490;28;20219;-85
2022/10/24 04:02:34;;;;;;;4.70;1.60;;;;;;;;;;5021636;28;20627;-85
2022/10/24 04:05:38;;;;;;;4.37;2.17;;;;;;;;;;5021002;28;20180;-85
2022/10/24 04:08:43;;;;;;;7.17;1.87;;;;;;;;;;5032305;28;20215;-85
2022/10/24 04:11:47;;;;;;;8.30;2.00;;;;;;;;;;5021525;28;20527;-85
2022/10/24 04:14:52;;;;;;;5.57;1.83;;;;;;;;;;5032582;28;20180;-85
2022/10/24 04:17:56;;;;;;;7.37;1.80;;;;;;;;;;5022181;28;20196;-85
2022/10/24 04:21:00;;;;;;;5.60;1.60;;;;;;;;;;5021948;28;20176;-85
2022/10/24 04:24:05;;;;;;;5.37;1.83;;;;;;;;;;5033557;28;20212;-86
2022/10/24 04:27:09;;;;;;;3.57;1.80;;;;;;;;;;5032728;28;20180;-86
2022/10/24 04:30:14;;;;;;;5.73;1.63;;;;;;;;;;5031872;28;20701;-85
2022/10/24 04:33:18;;;;;;;6.07;1.80;;;;;;;;;;5043026;28;20176;-85
2022/10/24 04:36:22;;;;;;;7.40;1.87;;;;;;;;;;5043479;28;20180;-85
2022/10/24 04:39:26;;;;;;;6.50;1.90;;;;;;;;;;5031799;28;20216;-85
2022/10/24 04:42:30;;;;;;;6.13;1.47;;;;;;;;;;5019891;28;20176;-85
2022/10/24 04:45:34;;;;;;;4.73;1.63;;;;;;;;;;5042363;28;20212;-85
2022/10/24 04:48:39;;;;;;;7.27;1.70;;;;;;;;;;5030287;28;20224;-85
2022/10/24 04:51:43;;;;;;;6.70;1.80;;;;;;;;;;5018948;28;20180;-85
2022/10/24 04:54:47;;;;;;;6.50;1.80;;;;;;;;;;5030100;28;20172;-85
2022/10/24 04:57:51;;;;;;;5.20;1.90;;;;;;;;;;5019482;28;20184;-85
2022/10/24 05:00:56;;;;;;;4.37;1.43;;;;;;;;;;5019768;28;20199;-85
2022/10/24 05:04:00;;;;;;;3.60;1.57;;;;;;;;;;5030688;28;20219;-85
2022/10/24 05:07:04;;;;;;;6.00;1.77;;;;;;;;;;5019591;28;20623;-85
2022/10/24 05:10:09;;;;;;;5.50;1.67;;;;;;;;;;5019039;28;20224;-85
2022/10/24 05:13:13;;;;;;;9.50;1.87;;;;;;;;;;5030187;28;20180;-85
2022/10/24 05:16:17;;;;;;;6.30;1.90;;;;;;;;;;5029954;28;20176;-85
2022/10/24 05:19:21;;;;;;;8.27;1.40;;;;;;;;;;5034559;28;20559;-85
2022/10/24 05:22:25;;;;;;;6.90;1.73;;;;;;;;;;5061859;28;20195;-85
2022/10/24 05:25:29;;;;;;;7.97;1.90;;;;;;;;;;5038060;28;20219;-85
2022/10/24 05:28:34;;;;;;;5.50;1.53;;;;;;;;;;5060661;28;20223;-85
2022/10/24 05:31:38;;;;;;;5.50;1.83;;;;;;;;;;5051173;28;20199;-85
2022/10/24 05:34:41;;;;;;;4.47;1.63;;;;;;;;;;5038311;28;20175;-85
2022/10/24 05:37:45;;;;;;;7.57;1.67;;;;;;;;;;5051957;28;20172;-85
2022/10/24 05:40:50;;;;;;;5.40;1.70;;;;;;;;;;5050502;28;20195;-85
2022/10/24 05:43:54;;;;;;;8.80;2.00;;;;;;;;;;5025030;28;20199;-85
2022/10/24 05:46:58;;;;;;;5.80;1.77;;;;;;;;;;5033731;28;20180;-84
2022/10/24 05:50:03;;;;;;;10.63;2.07;;;;;;;;;;5031073;28;20212;-85
2022/10/24 05:53:08;;;;;;;8.13;2.07;;;;;;;;;;5033781;28;20511;-85
2022/10/24 05:56:12;;;;;;;6.20;2.30;;;;;;;;;;5033478;28;20180;-85
2022/10/24 05:59:16;;;;;;;6.43;2.07;;;;;;;;;;5033482;28;20208;-85
2022/10/24 06:02:20;;;;;;;12.50;1.90;;;;;;;;;;5044929;28;20184;-85
2022/10/24 06:05:25;;;;;;;9.20;2.10;;;;;;;;;;5021510;28;20211;-85
2022/10/24 06:08:29;;;;;;;4.80;2.33;;;;;;;;;;5033845;28;20211;-84
2022/10/24 06:11:34;;;;;;;10.03;2.97;;;;;;;;;;5033106;28;20180;-86
2022/10/24 06:14:39;;;;;;;6.87;1.93;;;;;;;;;;5021834;28;20180;-85
2022/10/24 06:17:43;;;;;;;8.90;1.83;;;;;;;;;;5034285;28;20188;-85
2022/10/24 06:20:47;;;;;;;7.40;2.30;;;;;;;;;;5032765;28;20674;-86
2022/10/24 06:23:51;;;;;;;7.10;2.40;;;;;;;;;;5032951;28;20200;-88
2022/10/24 06:26:56;;;;;;;10.27;2.80;;;;;;;;;;5021902;28;20196;-86
2022/10/24 06:29:59;;;;;;;11.47;2.97;;;;;;;;;;5032822;28;20219;-86
2022/10/24 06:33:04;;;;;;;6.20;2.10;;;;;;;;;;5033020;28;20180;-85
2022/10/24 06:36:08;;;;;;;8.37;2.53;;;;;;;;;;5043897;28;20176;-85
2022/10/24 06:39:12;;;;;;;6.73;2.30;;;;;;;;;;5032466;28;20216;-85
2022/10/24 06:42:16;;;;;;;7.13;2.80;;;;;;;;;;5032642;28;20662;-86
2022/10/24 06:45:21;;;;;;;10.43;2.60;;;;;;;;;;5032277;28;20227;-86
2022/10/24 06:48:25;;;;;;;8.27;2.20;;;;;;;;;;5042645;28;20212;-86
2022/10/24 06:51:29;;;;;;;10.73;2.30;;;;;;;;;;5020967;28;20623;-86
2022/10/24 06:54:34;;;;;;;6.93;2.43;;;;;;;;;;5032640;28;20168;-86
2022/10/24 06:57:38;;;;;;;8.13;1.83;;;;;;;;;;5043506;28;20181;-86
2022/10/24 07:00:42;;;;;;;7.07;2.47;;;;;;;;;;5032306;28;20524;-86
2022/10/24 07:03:46;;;;;;;8.67;2.17;;;;;;;;;;5020670;28;20180;-85
2022/10/24 07:06:50;;;;;;;7.33;2.23;;;;;;;;;;5020649;28;20193;-85
2022/10/24 07:09:56;;;;;;;8.90;2.37;;;;;;;;;;5020924;28;20216;-86
2022/10/24 07:13:00;;;;;;;6.93;2.20;;;;;;;;;;5031969;28;20176;-85
2022/10/24 07:16:06;;;;;;;5.07;2.10;;;;;;;;;;5020711;28;20181;-85
2022/10/24 07:19:10;;;;;;;13.63;2.20;;;;;;;;;;5020426;28;20220;-85
2022/10/24 07:22:14;;;;;;;7.23;2.37;;;;;;;;;;5031816;28;20184;-85
2022/10/24 07:25:18;;;;;;;6.37;2.43;;;;;;;;;;5043177;28;20208;-85
2022/10/24 07:28:23;;;;;;;6.90;1.87;;;;;;;;;;5031251;28;20224;-85
2022/10/24 07:31:30;;;;;;;7.47;2.03;;;;;;;;;;5044088;28;20184;-85
2022/10/24 07:34:35;;;;;;;11.53;2.60;;;;;;;;;;5034039;28;20195;-86
2022/10/24 07:37:39;;;;;;;7.93;1.93;;;;;;;;;;5034773;28;20176;-85
2022/10/24 07:40:43;;;;;;;7.37;2.43;;;;;;;;;;5020534;28;20176;-85
2022/10/24 07:43:47;;;;;;;4.17;1.90;;;;;;;;;;5020095;28;20184;-85
2022/10/24 07:46:51;;;;;;;6.33;2.23;;;;;;;;;;5042614;28;20196;-85
2022/10/24 07:49:55;;;;;;;8.10;2.47;;;;;;;;;;5030741;28;20215;-85
2022/10/24 07:53:00;;;;;;;6.50;2.27;;;;;;;;;;5031691;28;20180;-85
2022/10/24 07:56:08;;;;;;;4.23;1.77;;;;;;;;;;5031062;28;20176;-85
2022/10/24 07:59:12;;;;;;;7.10;2.00;;;;;;;;;;5031075;28;20219;-85
2022/10/24 08:02:17;;;;;;;7.03;2.13;;;;;;;;;;5042304;28;20630;-85
2022/10/24 08:05:21;;;;;;;7.77;2.10;;;;;;;;;;5030526;28;20212;-85
2022/10/24 08:08:26;;;;;;;6.20;1.87;;;;;;;;;;5030903;28;20216;-86
2022/10/24 08:11:31;;;;;;;8.03;1.80;;;;;;;;;;5036201;28;20654;-86
2022/10/24 08:14:37;;;;;;;6.50;2.10;;;;;;;;;;5035751;28;20202;-86
2022/10/24 08:17:40;;;;;;;7.80;2.07;;;;;;;;;;5050766;28;20176;-86
2022/10/24 08:20:45;;;;;;;8.67;2.40;;;;;;;;;;5050495;28;20183;-86
2022/10/24 08:23:52;;;;;;;5.27;1.90;;;;;;;;;;5062142;28;20179;-85
2022/10/24 08:26:56;;;;;;;6.80;2.20;;;;;;;;;;5038873;28;20208;-86
2022/10/24 08:30:00;;;;;;;8.03;2.03;;;;;;;;;;5038691;28;20711;-86
2022/10/24 08:33:04;;;;;;;6.87;2.40;;;;;;;;;;5038812;28;20191;-86
2022/10/24 08:36:26;;;;;;;6.13;1.93;;;;;;;;;;5050253;28;20183;-85
2022/10/24 08:39:30;;;;;;;7.37;2.10;;;;;;;;;;5038810;28;20215;-86
2022/10/24 08:42:35;;;;;;;8.90;2.43;;;;;;;;;;5038999;28;20183;-86
2022/10/24 08:45:51;;;;;;;7.10;2.30;;;;;;;;;;5038833;28;20211;-86
2022/10/24 08:49:10;;;;;;;6.90;2.23;;;;;;;;;;5050020;28;20215;-86
2022/10/24 08:52:29;;;;;;;6.27;2.00;;;;;;;;;;5050001;28;20191;-85
2022/10/24 08:56:03;;;;;;;13.13;4.17;;;;;;;;;;5038663;28;20519;-85
2022/10/24 08:59:10;;;;;;;6.53;2.50;;;;;;;;;;5049878;28;20223;-85
2022/10/24 09:02:23;;;;;;;9.60;2.87;;;;;;;;;;5050059;28;20195;-85
2022/10/24 09:05:41;;;;;;;7.30;2.47;;;;;;;;;;5049710;28;20207;-86
2022/10/24 09:08:51;;;;;;;7.10;1.97;;;;;;;;;;5051615;28;20219;-86
2022/10/24 09:11:55;;;;;;;5.07;1.80;;;;;;;;;;5061050;28;20179;-85
2022/10/24 09:15:00;;;;;;;4.33;1.80;;;;;;;;;;5050454;22;20706;-87
2022/10/24 09:18:29;;;;;;;3.33;1.63;;;;;;;;;;5039383;28;20532;-87
2022/10/24 09:21:33;;;;;;;5.57;1.83;;;;;;;;;;5028108;28;20180;-88
2022/10/24 09:24:49;;;;;;;6.40;1.60;;;;;;;;;;5046851;28;20208;-88
2022/10/24 09:27:56;;;;;;;6.47;1.90;;;;;;;;;;5046748;28;20204;-88
2022/10/24 09:31:15;;;;;;;6.63;1.70;;;;;;;;;;5024970;28;20184;-87
2022/10/24 09:34:19;;;;;;;6.90;2.03;;;;;;;;;;5024536;28;20216;-88
2022/10/24 09:37:35;;;;;;;6.87;5.53;;;;;;;;;;5045994;28;20169;-87
2022/10/24 09:40:40;;;;;;;8.13;6.07;;;;;;;;;;5046743;28;20619;-88
2022/10/24 09:43:49;;;;;;;6.60;3.90;;;;;;;;;;5044968;28;20202;-87
2022/10/24 09:46:54;;;;;;;10.70;3.30;;;;;;;;;;5046323;28;20211;-87
2022/10/24 09:49:58;;;;;;;5.67;2.77;;;;;;;;;;5023280;28;20180;-87
2022/10/24 09:53:03;;;;;;;5.30;1.83;;;;;;;;;;5046366;28;20181;-87
2022/10/24 09:56:14;;;;;;;7.60;1.93;;;;;;;;;;5056034;28;20204;-87
2022/10/24 09:59:32;;;;;;;6.87;2.00;;;;;;;;;;5046759;28;20176;-87
2022/10/24 10:02:36;;;;;;;9.67;1.80;;;;;;;;;;5024131;28;20184;-87
2022/10/24 10:05:45;;;;;;;5.67;1.87;;;;;;;;;;5046079;28;20224;-87
2022/10/24 10:08:52;;;;;;;8.10;2.10;;;;;;;;;;5035047;28;20520;-87
2022/10/24 10:11:58;;;;;;;6.67;2.10;;;;;;;;;;5023944;28;20524;-88
2022/10/24 10:15:26;;;;;;;6.13;2.13;;;;;;;;;;5035259;28;20567;-87
2022/10/24 10:18:44;;;;;;;6.73;2.40;;;;;;;;;;5022919;28;20176;-87
2022/10/24 10:21:59;;;;;;;5.97;2.17;;;;;;;;;;5056144;28;20192;-88
2022/10/24 10:25:03;;;;;;;8.47;2.20;;;;;;;;;;5047481;28;20220;-87
2022/10/24 10:28:22;;;;;;;7.07;2.30;;;;;;;;;;5047432;28;20180;-88
2022/10/24 10:31:42;;;;;;;10.13;2.63;;;;;;;;;;5026001;28;20184;-87
2022/10/24 10:35:00;;;;;;;6.47;2.57;;;;;;;;;;5040022;28;20224;-87
2022/10/24 10:38:32;;;;;;;6.10;2.10;;;;;;;;;;5039350;28;20177;-87
2022/10/24 10:41:42;;;;;;;5.27;2.10;;;;;;;;;;5029633;28;20674;-87
2022/10/24 10:45:05;;;;;;;7.00;2.03;;;;;;;;;;5038389;28;20223;-87
2022/10/24 10:48:28;;;;;;;4.70;1.80;;;;;;;;;;5060027;28;20176;-88
2022/10/24 10:51:49;;;;;;;8.27;1.90;;;;;;;;;;5061232;28;20623;-88
2022/10/24 10:55:18;;;;;;;5.70;2.00;;;;;;;;;;5035915;28;20223;-88
2022/10/24 10:58:41;;;;;;;9.50;2.03;;;;;;;;;;5045041;28;20172;-88
2022/10/24 11:01:55;;;;;;;5.70;1.63;;;;;;;;;;5056824;28;20181;-88
2022/10/24 11:05:18;;;;;;;4.10;1.60;;;;;;;;;;5045359;28;20679;-88
2022/10/24 11:08:25;;;;;;;2.90;1.53;;;;;;;;;;5034215;28;20185;-88
2022/10/24 11:11:37;;;;;;;4.83;1.80;;;;;;;;;;5045447;28;20507;-88
2022/10/24 11:14:47;;;;;;;8.33;2.07;;;;;;;;;;5033521;28;20223;-88
2022/10/24 11:17:57;;;;;;;5.30;1.60;;;;;;;;;;5045416;28;20181;-88
2022/10/24 11:21:09;;;;;;;10.20;1.97;;;;;;;;;;5045115;28;20176;-88
2022/10/24 11:24:19;;;;;;;6.37;1.47;;;;;;;;;;5045507;28;20224;-88
2022/10/24 11:27:48;;;;;;;3.80;1.63;;;;;;;;;;5033666;28;20204;-89
2022/10/24 11:31:04;;;;;;;6.30;2.20;;;;;;;;;;5033537;28;20247;-87
2022/10/24 11:34:36;;;;;;;8.03;1.77;;;;;;;;;;5055975;28;20702;-88
2022/10/24 11:37:44;;;;;;;6.73;1.57;;;;;;;;;;5033943;28;20169;-88
2022/10/24 11:40:55;;;;;;;8.00;1.77;;;;;;;;;;5033860;28;20184;-88
2022/10/24 11:44:11;;;;;;;8.10;2.10;;;;;;;;;;5033352;28;20528;-88
2022/10/24 11:47:37;;;;;;;5.03;2.00;;;;;;;;;;5056310;28;20212;-89
2022/10/24 11:50:50;;;;;;;10.47;2.10;;;;;;;;;;5032402;28;20180;-88
2022/10/24 11:53:58;;;;;;;6.70;2.87;;;;;;;;;;5032587;28;20176;-88
2022/10/24 11:57:11;;;;;;;7.33;2.87;;;;;;;;;;5044401;28;20173;-88
2022/10/24 12:00:19;;;;;;;5.80;2.37;;;;;;;;;;5032286;28;20196;-90
2022/10/24 12:03:35;;;;;;;5.37;2.20;;;;;;;;;;5055030;28;20536;-90
2022/10/24 12:07:13;;;;;;;3.93;1.93;;;;;;;;;;5044249;28;20212;-90
2022/10/24 12:10:17;;;;;;;8.63;2.13;;;;;;;;;;5054561;28;20184;-90
2022/10/24 12:13:53;;;;;;;5.90;2.67;;;;;;;;;;5054912;28;20176;-89
2022/10/24 12:17:16;;;;;;;4.63;2.27;;;;;;;;;;5053870;28;20192;-89
2022/10/24 12:20:22;;;;;;;3.87;1.90;;;;;;;;;;5053871;28;20184;-89
2022/10/24 12:23:27;;;;;;;5.63;2.13;;;;;;;;;;5031949;28;20184;-89
2022/10/24 12:26:34;;;;;;;6.93;2.50;;;;;;;;;;5031107;28;20659;-89
2022/10/24 12:29:38;;;;;;;6.13;2.53;;;;;;;;;;5042980;28;20180;-88
2022/10/24 12:32:49;;;;;;;3.37;1.80;;;;;;;;;;5042185;28;20516;-89
2022/10/24 12:35:57;;;;;;;3.97;1.60;;;;;;;;;;5054169;28;20215;-89
2022/10/24 12:39:06;;;;;;;7.87;2.10;;;;;;;;;;5031346;28;20172;-89
2022/10/24 12:42:35;;;;;;;6.60;1.60;;;;;;;;;;5031111;28;20200;-89
2022/10/24 12:45:39;;;;;;;6.37;1.80;;;;;;;;;;5030432;28;20215;-89
2022/10/24 12:49:04;;;;;;;5.27;1.77;;;;;;;;;;5031266;28;20177;-89
2022/10/24 12:52:30;;;;;;;6.03;1.60;;;;;;;;;;5042254;28;20185;-89
2022/10/24 12:55:37;;;;;;;4.13;1.50;;;;;;;;;;5042205;28;20216;-89
2022/10/24 12:58:44;;;;;;;2.93;1.27;;;;;;;;;;5056508;28;20203;-89
2022/10/24 13:01:50;;;;;;;6.90;1.50;;;;;;;;;;5038939;28;20175;-89
2022/10/24 13:05:03;;;;;;;7.40;1.60;;;;;;;;;;5038690;28;20211;-89
2022/10/24 13:08:25;;;;;;;3.53;1.23;;;;;;;;;;5050859;28;20662;-89
2022/10/24 13:11:50;;;;;;;4.73;3.23;;;;;;;;;;5050528;28;20179;-89
2022/10/24 13:15:37;;;;;;;4.90;2.63;;;;;;;;;;5050370;28;20223;-89
2022/10/24 13:19:00;;;;;;;3.17;1.30;;;;;;;;;;4996431;28;20194;-89
2022/10/24 13:22:24;;;;;;;7.70;1.30;;;;;;;;;;5040093;28;20670;-88
2022/10/24 13:25:37;;;;;;;5.77;1.27;;;;;;;;;;5031064;28;20690;-89
2022/10/24 13:28:42;;;;;;;5.27;1.50;;;;;;;;;;5050059;28;20196;-89
2022/10/24 13:31:49;;;;;;;6.33;1.30;;;;;;;;;;5053983;28;20191;-89
2022/10/24 13:34:54;;;;;;;2.90;1.47;;;;;;;;;;5053183;28;20223;-89
2022/10/24 13:37:59;;;;;;;2.30;1.03;;;;;;;;;;5043128;28;20512;-88
2022/10/24 13:41:04;;;;;;;3.70;1.10;;;;;;;;;;5035390;28;20176;-88
2022/10/24 13:44:11;;;;;;;4.90;1.17;;;;;;;;;;5037746;28;20220;-87
2022/10/24 13:47:32;;;;;;;4.50;1.13;;;;;;;;;;5035602;28;20540;-88
2022/10/24 13:50:48;;;;;;;8.37;1.60;;;;;;;;;;5045477;28;20211;-88
2022/10/24 13:53:57;;;;;;;2.80;1.20;;;;;;;;;;5068215;28;20180;-88
2022/10/24 13:57:02;;;;;;;4.47;1.20;;;;;;;;;;5057102;28;20179;-87
2022/10/24 14:00:17;;;;;;;3.57;1.10;;;;;;;;;;5049099;28;20175;-88
2022/10/24 14:03:25;;;;;;;3.33;1.00;;;;;;;;;;5049472;28;20204;-87
2022/10/24 14:06:32;;;;;;;1.63;1.20;;;;;;;;;;5038539;28;20180;-87
2022/10/24 14:09:40;;;;;;;4.50;1.57;;;;;;;;;;5051501;28;20180;-87
2022/10/24 14:12:45;;;;;;;9.30;1.70;;;;;;;;;;5036120;28;20188;-88
2022/10/24 14:15:52;;;;;;;5.83;1.73;;;;;;;;;;5052608;28;20224;-88
2022/10/24 14:19:10;;;;;;;4.07;1.50;;;;;;;;;;5033495;28;20180;-88
2022/10/24 14:22:19;;;;;;;2.23;1.40;;;;;;;;;;5022004;28;20529;-88
2022/10/24 14:25:37;;;;;;;3.03;1.50;;;;;;;;;;5021819;28;20212;-88
2022/10/24 14:28:44;;;;;;;4.63;1.63;;;;;;;;;;5036136;28;20212;-88
2022/10/24 14:32:02;;;;;;;4.57;1.50;;;;;;;;;;5041500;28;20203;-88
2022/10/24 14:35:11;;;;;;;3.17;1.60;;;;;;;;;;5056566;28;20215;-88
2022/10/24 14:38:17;;;;;;;3.23;1.50;;;;;;;;;;5060420;28;20200;-88
2022/10/24 14:41:26;;;;;;;4.60;1.40;;;;;;;;;;5036521;28;20200;-88
2022/10/24 14:44:30;;;;;;;5.17;1.70;;;;;;;;;;5041000;28;20678;-88
2022/10/24 14:47:37;;;;;;;2.70;1.40;;;;;;;;;;5053570;28;20219;-88
2022/10/24 14:50:44;;;;;;;2.23;1.23;;;;;;;;;;5030040;28;20180;-88
2022/10/24 14:53:49;;;;;;;5.07;1.23;;;;;;;;;;5029140;28;20180;-87
2022/10/24 14:56:54;;;;;;;4.37;1.30;;;;;;;;;;5039707;28;20176;-88
2022/10/24 15:00:05;;;;;;;4.53;1.40;;;;;;;;;;5061113;28;20180;-88
2022/10/24 15:03:10;;;;;;;4.83;1.30;;;;;;;;;;5048644;28;20180;-87
2022/10/24 15:06:22;;;;;;;4.90;1.90;;;;;;;;;;5067735;28;20191;-88
2022/10/24 15:09:27;;;;;;;7.63;1.53;;;;;;;;;;5043698;28;20172;-88
2022/10/24 15:12:37;;;;;;;4.30;1.33;;;;;;;;;;5055278;28;20172;-88
2022/10/24 15:15:54;;;;;;;3.97;1.40;;;;;;;;;;5065776;28;20693;-88
2022/10/24 15:18:59;;;;;;;2.10;1.30;;;;;;;;;;5023854;28;20188;-88
2022/10/24 15:22:03;;;;;;;4.87;1.43;;;;;;;;;;5042236;28;20211;-88
2022/10/24 15:25:19;;;;;;;3.70;1.33;;;;;;;;;;5053421;28;20219;-88
2022/10/24 15:28:44;;;;;;;3.23;1.37;;;;;;;;;;5053954;28;20219;-88
2022/10/24 15:31:50;;;;;;;5.07;1.23;;;;;;;;;;5041284;28;20183;-88
2022/10/24 15:34:54;;;;;;;3.83;1.47;;;;;;;;;;5031226;28;20219;-88
2022/10/24 15:38:10;;;;;;;3.70;1.70;;;;;;;;;;5021375;28;20173;-88
2022/10/24 15:45:20;;;;;;;2.63;1.47;;;;;;;;;;5044273;28;20215;-88
2022/10/24 15:48:24;;;;;;;3.37;1.23;;;;;;;;;;5057728;22;20232;-86
2022/10/24 15:51:29;;;;;;;3.90;1.27;;;;;;;;;;5003011;28;20201;-86
2022/10/24 15:54:33;;;;;;;4.67;2.00;;;;;;;;;;5014324;28;20181;-86
2022/10/24 15:57:37;;;;;;;3.90;1.30;;;;;;;;;;5002390;28;20229;-87
2022/10/24 16:00:42;;;;;;;4.00;1.30;;;;;;;;;;5002639;28;20659;-87
2022/10/24 16:03:46;;;;;;;8.37;2.20;;;;;;;;;;5002716;28;20201;-86
2022/10/24 16:06:51;;;;;;;3.90;1.67;;;;;;;;;;5002654;28;20652;-86
2022/10/24 16:09:55;;;;;;;2.27;1.27;;;;;;;;;;5013862;28;20683;-86
2022/10/24 16:12:59;;;;;;;2.30;1.63;;;;;;;;;;4991517;28;20197;-86
2022/10/24 16:16:04;;;;;;;3.30;1.40;;;;;;;;;;4991434;28;20197;-86
2022/10/24 16:19:09;;;;;;;4.20;1.60;;;;;;;;;;5002633;28;20632;-86
2022/10/24 16:22:14;;;;;;;6.50;1.47;;;;;;;;;;4991756;28;20624;-86
2022/10/24 16:25:31;;;;;;;4.30;1.20;;;;;;;;;;4991727;28;20181;-86
2022/10/24 16:28:36;;;;;;;3.13;1.10;;;;;;;;;;5002107;28;20569;-86
2022/10/24 16:31:41;;;;;;;5.23;1.73;;;;;;;;;;5003003;28;20518;-86
2022/10/24 16:34:47;;;;;;;4.23;1.23;;;;;;;;;;4992536;28;20185;-86
2022/10/24 16:37:52;;;;;;;2.50;1.13;;;;;;;;;;5002100;28;20217;-86
2022/10/24 16:40:57;;;;;;;3.93;1.10;;;;;;;;;;4992352;28;20186;-86
2022/10/24 16:44:02;;;;;;;4.90;1.37;;;;;;;;;;4985798;28;20205;-85
2022/10/24 16:47:08;;;;;;;2.47;1.23;;;;;;;;;;5016023;28;20229;-86
2022/10/24 16:50:15;;;;;;;2.50;1.10;;;;;;;;;;4972011;28;20186;-86
2022/10/24 16:53:22;;;;;;;4.83;1.10;;;;;;;;;;4975371;28;20547;-86
2022/10/24 16:56:27;;;;;;;3.20;1.10;;;;;;;;;;4963208;28;20183;-86
2022/10/24 16:59:31;;;;;;;2.67;1.10;;;;;;;;;;4974135;28;20179;-86
2022/10/24 17:02:35;;;;;;;3.50;1.27;;;;;;;;;;4974932;28;20206;-86
2022/10/24 17:05:39;;;;;;;1.90;1.10;;;;;;;;;;4984139;28;20206;-86
2022/10/24 17:08:44;;;;;;;4.57;1.10;;;;;;;;;;4977601;28;20234;-86
2022/10/24 17:11:48;;;;;;;4.10;1.50;;;;;;;;;;4963343;28;20182;-86
2022/10/24 17:14:53;;;;;;;3.87;1.30;;;;;;;;;;4963309;28;20618;-86
2022/10/24 17:17:57;;;;;;;3.10;1.17;;;;;;;;;;4962580;28;20673;-86
2022/10/24 17:21:01;;;;;;;4.20;1.17;;;;;;;;;;4972446;28;20201;-86
2022/10/24 17:24:10;;;;;;;3.97;1.03;;;;;;;;;;4982308;28;20178;-86
2022/10/24 17:27:15;;;;;;;4.40;1.20;;;;;;;;;;4994206;28;20213;-87
2022/10/24 17:30:22;;;;;;;4.23;1.00;;;;;;;;;;4982259;28;20202;-86
2022/10/24 17:33:27;;;;;;;5.17;1.10;;;;;;;;;;4975428;28;20669;-86
2022/10/24 17:36:36;;;;;;;2.47;1.00;;;;;;;;;;4955991;28;20636;-86
2022/10/24 17:40:02;;;;;;;5.17;1.20;;;;;;;;;;4955957;28;20183;-86
2022/10/24 17:43:26;;;;;;;3.33;1.20;;;;;;;;;;4967452;28;20187;-86
2022/10/24 17:46:31;;;;;;;1.20;0.80;;;;;;;;;;4967680;28;20183;-86
2022/10/24 17:49:35;;;;;;;6.97;1.40;;;;;;;;;;4967042;28;20206;-86
2022/10/24 17:52:41;;;;;;;1.67;0.90;;;;;;;;;;4968135;28;20183;-86
2022/10/24 17:55:45;;;;;;;2.70;1.10;;;;;;;;;;4967129;28;20657;-86
2022/10/24 17:58:50;;;;;;;2.27;1.10;;;;;;;;;;4978624;28;20211;-86
2022/10/24 18:01:54;;;;;;;4.73;1.97;;;;;;;;;;4959127;28;20182;-85
2022/10/24 18:04:59;;;;;;;7.07;2.00;;;;;;;;;;4969851;28;20186;-84
2022/10/24 18:08:04;;;;;;;6.20;1.90;;;;;;;;;;4969230;28;20222;-84
2022/10/24 18:11:09;;;;;;;2.07;1.07;;;;;;;;;;4966575;28;20187;-87
2022/10/24 18:14:14;;;;;;;1.60;0.80;;;;;;;;;;4978001;28;20183;-87
2022/10/24 18:17:18;;;;;;;5.83;1.00;;;;;;;;;;4955933;28;20227;-87
2022/10/24 18:20:23;;;;;;;1.23;0.80;;;;;;;;;;4967510;28;20175;-87
2022/10/24 18:23:27;;;;;;;3.13;1.00;;;;;;;;;;4977537;28;20202;-87
2022/10/24 18:26:31;;;;;;;1.77;1.00;;;;;;;;;;4977436;28;20199;-86
2022/10/24 18:29:35;;;;;;;3.30;1.10;;;;;;;;;;4966738;28;20210;-87
2022/10/24 18:32:40;;;;;;;3.00;1.23;;;;;;;;;;4966906;28;20182;-87
2022/10/24 18:35:45;;;;;;;2.87;1.20;;;;;;;;;;4955639;28;20178;-87
2022/10/24 18:38:50;;;;;;;4.50;1.30;;;;;;;;;;4966675;28;20568;-87
2022/10/24 18:42:15;;;;;;;4.30;1.10;;;;;;;;;;4977963;28;20179;-87
2022/10/24 18:45:21;;;;;;;2.20;1.23;;;;;;;;;;4977126;28;20187;-86
2022/10/24 18:48:25;;;;;;;3.33;1.00;;;;;;;;;;4955316;28;20230;-87
2022/10/24 18:51:35;;;;;;;1.53;1.00;;;;;;;;;;4955711;28;20519;-87
2022/10/24 18:54:52;;;;;;;4.43;0.90;;;;;;;;;;4966092;28;20199;-87